createdAt,value
2019-01-02T00:00:59.322Z,24.37
2019-01-02T00:03:27.500Z,24.87
2019-01-02T00:05:56.454Z,21.37
2019-01-02T00:08:24.972Z,20.63
2019-01-02T00:10:53.284Z,20.03
2019-01-02T00:13:21.492Z,20.50
2019-01-02T00:15:50.538Z,27.30
2019-01-02T00:18:18.888Z,21.50
2019-01-02T00:20:49.193Z,24.70
2019-01-02T00:23:18.060Z,23.77
2019-01-02T00:25:46.305Z,19.50
2019-01-02T00:28:16.763Z,19.80
2019-01-02T00:30:45.525Z,27.77
2019-01-02T00:33:13.600Z,23.80
2019-01-02T00:35:42.614Z,24.67
2019-01-02T00:38:10.857Z,25.33
2019-01-02T00:40:39.587Z,25.00
2019-01-02T00:43:08.101Z,27.10
2019-01-02T00:45:37.196Z,28.10
2019-01-02T00:48:05.438Z,27.13
2019-01-02T00:50:39.755Z,26.23
2019-01-02T00:53:09.261Z,25.97
2019-01-02T00:55:38.292Z,17.00
2019-01-02T00:58:08.080Z,22.17
2019-01-02T01:00:39.049Z,29.63
2019-01-02T01:03:09.873Z,29.00
2019-01-02T01:05:38.564Z,29.83
2019-01-02T01:08:07.385Z,28.50
2019-01-02T01:10:35.929Z,24.93
2019-01-02T01:13:04.376Z,37.57
2019-01-02T01:15:32.729Z,20.57
2019-01-02T01:18:02.872Z,30.67
2019-01-02T01:20:31.664Z,29.87
2019-01-02T01:23:00.834Z,16.50
2019-01-02T01:25:30.570Z,31.93
2019-01-02T01:27:59.136Z,34.50
2019-01-02T01:30:27.345Z,23.83
2019-01-02T01:32:55.720Z,24.20
2019-01-02T01:35:24.493Z,24.00
2019-01-02T01:37:54.874Z,28.50
2019-01-02T01:40:23.809Z,26.43
2019-01-02T01:42:52.988Z,27.83
2019-01-02T01:45:21.723Z,25.93
2019-01-02T01:47:50.418Z,33.73
2019-01-02T01:50:19.069Z,25.10
2019-01-02T01:52:47.809Z,24.03
2019-01-02T01:55:15.965Z,26.00
2019-01-02T01:57:44.316Z,24.70
2019-01-02T02:00:15.013Z,19.43
2019-01-02T02:02:43.668Z,24.83
2019-01-02T02:05:11.867Z,25.67
2019-01-02T02:07:40.025Z,27.63
2019-01-02T02:10:13.813Z,22.27
2019-01-02T02:12:42.404Z,24.93
2019-01-02T02:15:10.887Z,28.80
2019-01-02T02:17:41.179Z,30.07
2019-01-02T02:20:11.514Z,31.80
2019-01-02T02:22:39.831Z,36.77
2019-01-02T02:25:10.627Z,33.10
2019-01-02T02:27:38.763Z,33.97
2019-01-02T02:30:09.379Z,28.67
2019-01-02T02:32:38.270Z,32.80
2019-01-02T02:35:07.345Z,36.60
2019-01-02T02:37:35.765Z,35.80
2019-01-02T02:40:04.840Z,30.60
2019-01-02T02:42:33.269Z,43.47
2019-01-02T02:45:02.158Z,41.70
2019-01-02T02:47:31.925Z,38.03
2019-01-02T02:50:00.556Z,27.20
2019-01-02T02:52:28.800Z,46.83
2019-01-02T02:54:57.188Z,36.93
2019-01-02T02:57:25.724Z,27.50
2019-01-02T02:59:53.830Z,38.27
2019-01-02T03:02:22.344Z,27.27
2019-01-02T03:04:50.520Z,36.87
2019-01-02T03:07:19.590Z,26.40
2019-01-02T03:09:48.151Z,36.97
2019-01-02T03:12:16.667Z,36.27
2019-01-02T03:14:44.929Z,24.47
2019-01-02T03:17:13.447Z,30.20
2019-01-02T03:19:41.939Z,36.20
2019-01-02T03:22:10.804Z,37.37
2019-01-02T03:24:39.570Z,36.73
2019-01-02T03:27:09.564Z,30.37
2019-01-02T03:29:37.782Z,32.40
2019-01-02T03:32:07.082Z,31.70
2019-01-02T03:34:36.956Z,29.77
2019-01-02T03:37:05.505Z,30.40
2019-01-02T03:39:33.660Z,33.17
2019-01-02T03:42:01.920Z,28.70
2019-01-02T03:44:30.218Z,37.93
2019-01-02T03:46:58.387Z,35.33
2019-01-02T03:49:26.617Z,35.70
2019-01-02T03:51:55.181Z,27.63
2019-01-02T03:54:23.718Z,29.27
2019-01-02T03:56:51.954Z,36.77
2019-01-02T03:59:20.070Z,32.07
2019-01-02T04:01:48.258Z,33.60
2019-01-02T04:04:16.688Z,31.93
2019-01-02T04:06:45.917Z,34.10
2019-01-02T04:09:14.610Z,36.63
2019-01-02T04:11:43.043Z,28.13
2019-01-02T04:14:11.367Z,36.50
2019-01-02T04:16:40.202Z,26.50
2019-01-02T04:19:08.489Z,46.10
2019-01-02T04:21:36.596Z,34.30
2019-01-02T04:24:04.816Z,47.23
2019-01-02T04:26:35.163Z,34.97
2019-01-02T04:29:03.358Z,37.50
2019-01-02T04:31:31.556Z,31.87
2019-01-02T04:34:00.849Z,30.60
2019-01-02T04:36:28.981Z,36.70
2019-01-02T04:38:58.211Z,25.17
2019-01-02T04:41:26.835Z,39.10
2019-01-02T04:43:55.253Z,42.70
2019-01-02T04:46:23.361Z,44.40
2019-01-02T04:48:51.729Z,41.20
2019-01-02T04:51:20.588Z,38.37
2019-01-02T04:53:48.899Z,32.23
2019-01-02T04:56:17.064Z,39.73
2019-01-02T04:58:45.925Z,49.13
2019-01-02T05:01:15.683Z,46.43
2019-01-02T05:03:43.986Z,36.43
2019-01-02T05:06:12.201Z,39.73
2019-01-02T05:08:40.345Z,39.33
2019-01-02T05:11:09.073Z,40.10
2019-01-02T05:13:37.317Z,32.73
2019-01-02T05:16:05.635Z,41.83
2019-01-02T05:18:34.420Z,33.60
2019-01-02T05:21:03.206Z,38.70
2019-01-02T05:23:31.452Z,55.17
2019-01-02T05:26:00.264Z,41.23
2019-01-02T05:28:28.404Z,30.30
2019-01-02T05:30:56.702Z,36.47
2019-01-02T05:33:24.780Z,40.70
2019-01-02T05:35:53.141Z,37.10
2019-01-02T05:38:21.959Z,34.23
2019-01-02T05:40:51.462Z,37.23
2019-01-02T05:43:19.610Z,34.70
2019-01-02T05:45:48.182Z,47.47
2019-01-02T05:48:16.704Z,35.07
2019-01-02T05:50:45.055Z,31.47
2019-01-02T05:53:13.341Z,41.00
2019-01-02T05:55:41.616Z,26.27
2019-01-02T05:58:10.791Z,44.60
2019-01-02T06:00:39.878Z,33.17
2019-01-02T06:03:08.193Z,40.87
2019-01-02T06:05:36.381Z,28.40
2019-01-02T06:08:05.167Z,34.03
2019-01-02T06:10:33.231Z,32.40
2019-01-02T06:13:01.363Z,24.67
2019-01-02T06:15:29.580Z,31.93
2019-01-02T06:17:58.056Z,24.40
2019-01-02T06:20:26.094Z,32.97
2019-01-02T06:22:54.298Z,34.67
2019-01-02T06:25:22.714Z,29.50
2019-01-02T06:27:51.268Z,34.80
2019-01-02T06:30:19.839Z,23.23
2019-01-02T06:32:48.444Z,32.70
2019-01-02T06:35:16.775Z,33.67
2019-01-02T06:37:45.388Z,33.10
2019-01-02T06:40:14.173Z,28.77
2019-01-02T06:42:42.428Z,24.43
2019-01-02T06:45:15.551Z,32.60
2019-01-02T06:47:44.581Z,29.93
2019-01-02T06:50:19.429Z,30.53
2019-01-02T06:52:47.627Z,27.13
2019-01-02T06:55:22.736Z,25.53
2019-01-02T06:57:57.771Z,29.40
2019-01-02T07:00:35.121Z,25.97
2019-01-02T07:03:05.192Z,29.60
2019-01-02T07:05:35.101Z,27.00
2019-01-02T07:08:03.979Z,32.53
2019-01-02T07:10:32.401Z,26.30
2019-01-02T07:13:00.669Z,31.23
2019-01-02T07:15:28.644Z,28.60
2019-01-02T07:17:56.742Z,35.87
2019-01-02T07:20:25.511Z,26.17
2019-01-02T07:22:53.691Z,28.47
2019-01-02T07:25:21.949Z,24.07
2019-01-02T07:27:50.480Z,23.17
2019-01-02T07:30:22.747Z,33.50
2019-01-02T07:32:51.231Z,30.17
2019-01-02T07:36:10.054Z,19.43
2019-01-02T07:38:53.978Z,26.97
2019-01-02T07:41:58.114Z,27.90
2019-01-02T07:45:17.386Z,24.57
2019-01-02T07:48:35.735Z,33.07
2019-01-02T07:51:30.919Z,39.40
2019-01-02T07:54:49.706Z,24.13
2019-01-02T07:58:19.417Z,29.60
2019-01-02T08:01:26.507Z,36.20
2019-01-02T08:04:35.964Z,27.00
2019-01-02T08:07:35.832Z,30.20
2019-01-02T08:10:24.690Z,31.00
2019-01-02T08:13:25.868Z,27.43
2019-01-02T08:16:47.794Z,34.90
2019-01-02T08:19:29.921Z,34.37
2019-01-02T08:22:42.109Z,26.13
2019-01-02T08:25:23.859Z,37.20
2019-01-02T08:28:20.134Z,34.40
2019-01-02T08:31:24.761Z,31.37
2019-01-02T08:34:43.728Z,25.43
2019-01-02T08:37:38.376Z,30.60
2019-01-02T08:40:24.612Z,26.37
2019-01-02T08:43:49.935Z,33.03
2019-01-02T08:46:38.655Z,28.33
2019-01-02T08:49:25.566Z,30.17
2019-01-02T08:52:36.885Z,20.50
2019-01-02T08:55:25.803Z,26.97
2019-01-02T08:58:33.012Z,33.70
2019-01-02T09:01:40.021Z,29.57
2019-01-02T09:04:41.343Z,29.73
2019-01-02T09:07:37.447Z,34.53
2019-01-02T09:10:49.684Z,22.93
2019-01-02T09:13:54.876Z,27.70
2019-01-02T09:17:06.952Z,24.07
2019-01-02T09:20:13.417Z,18.87
2019-01-02T09:23:07.403Z,28.17
2019-01-02T09:26:14.483Z,21.67
2019-01-02T09:29:27.402Z,41.47
2019-01-02T09:32:23.609Z,26.53
2019-01-02T09:35:20.087Z,16.40
2019-01-02T09:38:50.712Z,33.70
2019-01-02T09:42:01.996Z,24.17
2019-01-02T09:45:09.283Z,23.53
2019-01-02T09:48:11.942Z,22.77
2019-01-02T09:51:24.480Z,19.63
2019-01-02T09:54:52.769Z,27.53
2019-01-02T09:58:16.574Z,21.67
2019-01-02T10:01:30.591Z,26.17
2019-01-02T10:04:41.266Z,26.00
2019-01-02T10:07:44.937Z,18.97
2019-01-02T10:10:40.620Z,25.30
2019-01-02T10:14:11.801Z,20.27
2019-01-02T10:17:23.778Z,19.63
2019-01-02T10:20:44.019Z,20.03
2019-01-02T10:23:52.036Z,14.47
2019-01-02T10:26:58.307Z,24.43
2019-01-02T10:30:15.939Z,16.93
2019-01-02T10:33:14.704Z,17.33
2019-01-02T10:36:24.275Z,15.63
2019-01-02T10:39:27.164Z,20.27
2019-01-02T10:42:44.494Z,17.53
2019-01-02T10:45:50.318Z,24.37
2019-01-02T10:49:06.033Z,20.93
2019-01-02T10:52:37.332Z,14.50
2019-01-02T10:55:56.665Z,14.70
2019-01-02T10:58:59.753Z,15.10
2019-01-02T11:02:06.635Z,16.27
2019-01-02T11:04:59.895Z,14.07
2019-01-02T11:07:56.833Z,19.53
2019-01-02T11:11:16.321Z,12.33
2019-01-02T11:14:11.470Z,12.50
2019-01-02T11:17:17.343Z,14.37
2019-01-02T11:20:39.629Z,11.43
2019-01-02T11:23:45.899Z,10.03
2019-01-02T11:27:05.169Z,5.63
2019-01-02T11:30:21.133Z,9.17
2019-01-02T11:33:35.719Z,7.07
2019-01-02T11:37:01.653Z,10.20
2019-01-02T11:39:58.036Z,7.97
2019-01-02T11:43:18.769Z,9.07
2019-01-02T11:45:47.468Z,7.93
2019-01-02T11:48:17.139Z,9.67
2019-01-02T11:50:45.758Z,5.63
2019-01-02T11:53:14.350Z,11.00
2019-01-02T11:55:43.240Z,4.40
2019-01-02T11:58:11.562Z,5.93
2019-01-02T12:00:40.234Z,8.67
2019-01-02T12:03:08.462Z,5.37
2019-01-02T12:05:36.930Z,7.73
2019-01-02T12:08:05.917Z,4.23
2019-01-02T12:10:34.930Z,5.17
2019-01-02T12:13:03.811Z,4.20
2019-01-02T12:15:32.216Z,9.47
2019-01-02T12:18:00.757Z,5.57
2019-01-02T12:20:29.440Z,8.80
2019-01-02T12:22:58.107Z,4.40
2019-01-02T12:25:26.219Z,2.60
2019-01-02T12:27:56.488Z,4.70
2019-01-02T12:30:25.598Z,4.07
2019-01-02T12:32:53.731Z,7.33
2019-01-02T12:35:22.249Z,7.43
2019-01-02T12:37:50.841Z,7.50
2019-01-02T12:40:19.171Z,5.10
2019-01-02T12:42:47.720Z,8.47
2019-01-02T12:45:16.091Z,5.50
2019-01-02T12:47:44.629Z,7.67
2019-01-02T12:50:13.338Z,6.90
2019-01-02T12:52:41.544Z,4.90
2019-01-02T12:55:09.899Z,5.17
2019-01-02T12:57:38.536Z,7.67
2019-01-02T13:00:11.230Z,6.37
2019-01-02T13:03:10.519Z,9.07
2019-01-02T13:06:18.017Z,7.77
2019-01-02T13:09:45.808Z,2.47
2019-01-02T13:12:48.679Z,3.43
2019-01-02T13:16:07.334Z,3.83
2019-01-02T13:19:26.403Z,6.63
2019-01-02T13:22:34.796Z,6.70
2019-01-02T13:25:24.438Z,5.93
2019-01-02T13:28:16.223Z,8.87
2019-01-02T13:31:37.950Z,4.80
2019-01-02T13:34:42.752Z,7.43
2019-01-02T13:37:58.165Z,7.10
2019-01-02T13:40:58.800Z,5.67
2019-01-02T13:44:09.451Z,6.03
2019-01-02T13:47:12.144Z,6.00
2019-01-02T13:50:00.790Z,7.20
2019-01-02T13:52:29.036Z,3.43
2019-01-02T13:55:02.111Z,3.40
2019-01-02T13:57:31.005Z,4.23
2019-01-02T13:59:59.179Z,6.83
2019-01-02T14:02:27.750Z,3.73
2019-01-02T14:04:56.303Z,5.70
2019-01-02T14:07:25.564Z,3.67
2019-01-02T14:09:53.761Z,11.30
2019-01-02T14:12:21.932Z,2.60
2019-01-02T14:14:50.617Z,5.60
2019-01-02T14:17:19.728Z,3.27
2019-01-02T14:19:48.049Z,5.73
2019-01-02T14:22:18.942Z,5.67
2019-01-02T14:24:47.528Z,7.17
2019-01-02T14:27:15.793Z,3.50
2019-01-02T14:29:43.945Z,2.43
2019-01-02T14:32:12.234Z,4.90
2019-01-02T14:34:40.738Z,5.40
2019-01-02T14:37:08.895Z,5.73
2019-01-02T14:39:36.949Z,4.43
2019-01-02T14:42:05.710Z,3.97
2019-01-02T14:44:33.830Z,3.13
2019-01-02T14:47:02.277Z,4.07
2019-01-02T14:49:30.992Z,4.77
2019-01-02T14:51:59.581Z,1.40
2019-01-02T14:54:27.935Z,4.20
2019-01-02T14:56:57.202Z,4.47
2019-01-02T14:59:26.353Z,3.87
2019-01-02T15:01:55.254Z,3.70
2019-01-02T15:04:23.531Z,5.07
2019-01-02T15:06:52.565Z,4.23
2019-01-02T15:09:20.555Z,4.67
2019-01-02T15:11:49.592Z,5.30
2019-01-02T15:14:18.905Z,6.43
2019-01-02T15:16:47.123Z,4.73
2019-01-02T15:19:15.410Z,1.73
2019-01-02T15:21:45.560Z,3.03
2019-01-02T15:24:13.728Z,5.37
2019-01-02T15:26:44.156Z,3.30
2019-01-02T15:29:12.225Z,5.67
2019-01-02T15:31:40.669Z,4.70
2019-01-02T15:34:10.021Z,3.63
2019-01-02T15:36:41.049Z,1.60
2019-01-02T15:39:09.230Z,6.47
2019-01-02T15:41:37.488Z,5.23
2019-01-02T15:44:06.859Z,9.87
2019-01-02T15:46:37.641Z,4.73
2019-01-02T15:49:06.376Z,4.23
2019-01-02T15:51:35.160Z,3.23
2019-01-02T15:54:03.792Z,2.97
2019-01-02T15:56:32.182Z,6.37
2019-01-02T15:59:00.958Z,3.47
2019-01-02T16:01:29.544Z,2.00
2019-01-02T16:03:57.892Z,2.47
2019-01-02T16:06:26.364Z,2.37
2019-01-02T16:08:55.596Z,5.03
2019-01-02T16:11:24.800Z,7.70
2019-01-02T16:13:53.140Z,7.17
2019-01-02T16:16:21.919Z,3.97
2019-01-02T16:18:51.153Z,4.20
2019-01-02T16:21:19.228Z,5.53
2019-01-02T16:23:47.418Z,6.97
2019-01-02T16:26:15.685Z,5.67
2019-01-02T16:28:44.614Z,5.90
2019-01-02T16:31:13.414Z,4.23
2019-01-02T16:33:41.551Z,2.23
2019-01-02T16:36:11.238Z,4.60
2019-01-02T16:38:39.930Z,9.20
2019-01-02T16:41:08.218Z,8.47
2019-01-02T16:43:36.372Z,8.77
2019-01-02T16:46:04.912Z,6.27
2019-01-02T16:48:33.551Z,5.87
2019-01-02T16:51:02.022Z,6.37
2019-01-02T16:53:30.277Z,6.23
2019-01-02T16:55:59.057Z,8.20
2019-01-02T16:58:33.154Z,5.40
2019-01-02T17:01:01.385Z,7.77
2019-01-02T17:03:31.205Z,8.23
2019-01-02T17:06:08.267Z,4.83
2019-01-02T17:08:42.776Z,8.90
2019-01-02T17:11:11.524Z,10.07
2019-01-02T17:13:40.199Z,9.10
2019-01-02T17:16:08.734Z,12.07
2019-01-02T17:18:37.126Z,8.53
2019-01-02T17:21:05.365Z,11.70
2019-01-02T17:23:34.537Z,8.73
2019-01-02T17:26:02.649Z,6.20
2019-01-02T17:28:31.704Z,5.67
2019-01-02T17:30:59.839Z,5.97
2019-01-02T17:33:28.803Z,4.17
2019-01-02T17:36:00.455Z,5.37
2019-01-02T17:38:29.926Z,4.57
2019-01-02T17:40:58.316Z,3.37
2019-01-02T17:43:26.600Z,4.70
2019-01-02T17:45:54.819Z,4.50
2019-01-02T17:48:24.242Z,5.27
2019-01-02T17:50:52.911Z,7.90
2019-01-02T17:53:22.324Z,3.53
2019-01-02T17:55:51.214Z,4.00
2019-01-02T17:58:21.117Z,5.87
2019-01-02T18:00:49.649Z,7.43
2019-01-02T18:03:18.033Z,9.00
2019-01-02T18:05:46.521Z,12.50
2019-01-02T18:08:26.283Z,18.53
2019-01-02T18:10:55.672Z,17.27
2019-01-02T18:13:24.050Z,22.10
2019-01-02T18:15:52.577Z,18.50
2019-01-02T18:18:21.788Z,14.13
2019-01-02T18:20:50.034Z,21.40
2019-01-02T18:23:19.233Z,14.53
2019-01-02T18:25:47.454Z,19.47
2019-01-02T18:28:15.966Z,18.30
2019-01-02T18:30:44.277Z,10.17
2019-01-02T18:33:12.852Z,15.90
2019-01-02T18:35:41.836Z,11.70
2019-01-02T18:38:10.688Z,13.77
2019-01-02T18:40:38.843Z,14.80
2019-01-02T18:43:08.730Z,8.33
2019-01-02T18:45:37.392Z,13.57
2019-01-02T18:48:09.570Z,9.43
2019-01-02T18:50:38.295Z,14.57
2019-01-02T18:53:07.053Z,16.10
2019-01-02T18:55:36.797Z,15.73
2019-01-02T18:58:04.986Z,10.50
2019-01-02T19:00:33.289Z,15.03
2019-01-02T19:03:02.979Z,21.07
2019-01-02T19:05:31.271Z,12.87
2019-01-02T19:07:59.880Z,14.77
2019-01-02T19:10:29.077Z,18.83
2019-01-02T19:12:58.117Z,20.27
2019-01-02T19:15:26.794Z,17.87
2019-01-02T19:17:56.532Z,22.50
2019-01-02T19:20:26.469Z,20.53
2019-01-02T19:22:54.968Z,20.03
2019-01-02T19:25:23.362Z,22.73
2019-01-02T19:27:51.258Z,38.20
2019-01-02T19:30:19.782Z,25.23
2019-01-02T19:32:47.893Z,25.07
2019-01-02T19:35:16.968Z,21.53
2019-01-02T19:37:45.592Z,26.20
2019-01-02T19:40:14.401Z,18.87
2019-01-02T19:42:42.613Z,20.53
2019-01-02T19:45:11.185Z,14.03
2019-01-02T19:47:39.643Z,14.53
2019-01-02T19:50:11.168Z,24.97
2019-01-02T19:52:39.495Z,20.40
2019-01-02T19:55:10.602Z,20.73
2019-01-02T19:57:41.678Z,25.33
2019-01-02T20:00:11.218Z,21.73
2019-01-02T20:02:40.348Z,16.80
2019-01-02T20:05:08.448Z,22.70
2019-01-02T20:07:36.896Z,21.23
2019-01-02T20:10:08.074Z,17.30
2019-01-02T20:12:36.275Z,15.63
2019-01-02T20:15:06.182Z,20.10
2019-01-02T20:17:38.860Z,15.90
2019-01-02T20:20:05.934Z,15.00
2019-01-02T20:22:34.822Z,16.33
2019-01-02T20:25:03.414Z,13.97
2019-01-02T20:27:31.817Z,14.23
2019-01-02T20:29:59.821Z,15.63
2019-01-02T20:32:27.885Z,21.53
2019-01-02T20:34:56.384Z,16.30
2019-01-02T20:37:24.744Z,17.57
2019-01-02T20:39:57.531Z,17.07
2019-01-02T20:42:34.751Z,19.67
2019-01-02T20:45:04.243Z,16.30
2019-01-02T20:47:33.064Z,18.87
2019-01-02T20:50:01.419Z,20.03
2019-01-02T20:52:29.767Z,14.00
2019-01-02T20:54:57.972Z,13.40
2019-01-02T20:57:27.601Z,18.23
2019-01-02T20:59:56.945Z,8.47
2019-01-02T21:02:26.942Z,10.23
2019-01-02T21:04:55.143Z,12.33
2019-01-02T21:07:23.445Z,11.90
2019-01-02T21:09:51.552Z,12.10
2019-01-02T21:12:21.307Z,13.00
2019-01-02T21:14:49.888Z,16.50
2019-01-02T21:17:18.454Z,13.67
2019-01-02T21:19:46.736Z,13.97
2019-01-02T21:22:15.751Z,13.00
2019-01-02T21:28:15.258Z,11.77
2019-01-02T21:31:01.957Z,12.30
2019-01-02T21:33:49.013Z,12.27
2019-01-02T21:36:36.302Z,8.10
2019-01-02T21:39:23.159Z,13.90
2019-01-02T21:42:09.825Z,14.57
2019-01-02T21:44:56.947Z,16.63
2019-01-02T21:47:44.453Z,15.17
2019-01-02T21:50:31.171Z,17.10
2019-01-02T21:53:17.977Z,20.30
2019-01-02T21:55:46.423Z,19.37
2019-01-02T21:58:15.287Z,20.67
2019-01-02T22:00:44.098Z,20.60
2019-01-02T22:03:12.540Z,15.43
2019-01-02T22:05:42.489Z,13.53
2019-01-02T22:08:11.491Z,16.17
2019-01-02T22:10:40.115Z,14.00
2019-01-02T22:13:12.518Z,13.10
2019-01-02T22:15:44.122Z,18.77
2019-01-02T22:18:13.867Z,22.07
2019-01-02T22:20:43.013Z,13.67
2019-01-02T22:23:11.403Z,20.27
2019-01-02T22:25:40.367Z,13.93
2019-01-02T22:28:08.807Z,22.33
2019-01-02T22:30:37.624Z,19.67
2019-01-02T22:33:05.933Z,13.53
2019-01-02T22:35:34.346Z,13.27
2019-01-02T22:38:03.112Z,16.40
2019-01-02T22:40:32.012Z,19.43
2019-01-02T22:43:00.308Z,21.50
2019-01-02T22:45:28.437Z,21.10
2019-01-02T22:47:57.359Z,11.70
2019-01-02T22:50:26.222Z,13.57
2019-01-02T22:52:55.314Z,15.33
2019-01-02T22:55:23.461Z,15.43
2019-01-02T22:57:52.117Z,17.70
2019-01-02T23:00:39.123Z,11.43
2019-01-02T23:03:33.435Z,15.83
2019-01-02T23:06:36.705Z,10.00
2019-01-02T23:09:24.439Z,12.07
2019-01-02T23:12:16.840Z,12.23
2019-01-02T23:15:05.022Z,14.10
2019-01-02T23:17:53.882Z,15.03
2019-01-02T23:20:42.491Z,11.40
2019-01-02T23:23:37.231Z,13.43
2019-01-02T23:26:25.575Z,11.97
2019-01-02T23:29:23.961Z,13.13
2019-01-02T23:32:11.589Z,10.23
2019-01-02T23:35:17.754Z,8.33
2019-01-02T23:38:15.113Z,10.27
2019-01-02T23:41:09.191Z,13.87
2019-01-02T23:43:56.091Z,9.83
2019-01-02T23:46:53.165Z,10.50
2019-01-02T23:50:01.677Z,13.07
2019-01-02T23:52:52.892Z,11.97
2019-01-02T23:55:44.409Z,14.73
2019-01-02T23:58:31.222Z,17.50
